FDX5530 MMQT-KMEM
Flight info
| Callsign | FDX5530 |
|---|---|
| Flight time | 2h 38m |
| Altitude | 35000 |
| Route | ROGDI1 ROGDI UJ14 TMN UJ35 MAM DCT BRO DCT PSX J29 ELD HOBRK4 |
| Aircraft | B752/H-SDE3FGHIM3RWXY/LB1 |
Departure
| Time | 2026-05-09 06:28 |
|---|---|
| Airport | Querétaro Intercontinental Airport (MMQT) |
Arrival
| Time | 2026-05-09 09:07 |
|---|---|
| Airport | Memphis International Airport (KMEM) |
| Time | Latitude | Longitude | Altitude | Speed | Heading |
|---|---|---|---|---|---|
| 2026-05-09 06:01 | 20.62147 | -100.18510 | 6293 ft | 0 kts | 11° |
| 2026-05-09 06:10 | 20.62145 | -100.18510 | 6293 ft | 2 kts | 11° |
| 2026-05-09 06:10 | 20.62130 | -100.18514 | 6292 ft | 2 kts | 11° |
| 2026-05-09 06:10 | 20.62116 | -100.18517 | 6292 ft | 2 kts | 11° |
| 2026-05-09 06:11 | 20.62101 | -100.18520 | 6292 ft | 2 kts | 11° |
| 2026-05-09 06:11 | 20.62086 | -100.18524 | 6292 ft | 2 kts | 30° |
| 2026-05-09 06:11 | 20.62075 | -100.18534 | 6291 ft | 2 kts | 51° |
| 2026-05-09 06:11 | 20.62067 | -100.18548 | 6291 ft | 2 kts | 72° |
| 2026-05-09 06:12 | 20.62065 | -100.18564 | 6290 ft | 2 kts | 94° |
| 2026-05-09 06:12 | 20.62066 | -100.18571 | 6290 ft | 1 kts | 103° |
| 2026-05-09 06:12 | 20.62066 | -100.18574 | 6290 ft | 0 kts | 101° |
| 2026-05-09 06:16 | 20.62066 | -100.18573 | 6289 ft | 0 kts | 101° |
| 2026-05-09 06:16 | 20.62064 | -100.18559 | 6289 ft | 2 kts | 98° |
| 2026-05-09 06:16 | 20.62061 | -100.18535 | 6290 ft | 3 kts | 99° |
| 2026-05-09 06:17 | 20.62056 | -100.18508 | 6290 ft | 3 kts | 101° |
| 2026-05-09 06:17 | 20.62052 | -100.18481 | 6290 ft | 3 kts | 100° |
| 2026-05-09 06:17 | 20.62047 | -100.18454 | 6291 ft | 3 kts | 100° |
| 2026-05-09 06:17 | 20.62042 | -100.18426 | 6291 ft | 3 kts | 101° |
| 2026-05-09 06:18 | 20.62037 | -100.18398 | 6292 ft | 3 kts | 100° |
| 2026-05-09 06:18 | 20.62034 | -100.18372 | 6292 ft | 2 kts | 85° |
| 2026-05-09 06:18 | 20.62035 | -100.18349 | 6292 ft | 1 kts | 85° |
| 2026-05-09 06:18 | 20.62040 | -100.18340 | 6292 ft | 1 kts | 44° |
| 2026-05-09 06:19 | 20.62048 | -100.18336 | 6292 ft | 2 kts | 16° |
| 2026-05-09 06:19 | 20.62066 | -100.18343 | 6292 ft | 4 kts | 311° |
| 2026-05-09 06:19 | 20.62073 | -100.18385 | 6292 ft | 9 kts | 269° |
| 2026-05-09 06:19 | 20.62071 | -100.18479 | 6291 ft | 13 kts | 271° |
| 2026-05-09 06:20 | 20.62073 | -100.18588 | 6289 ft | 12 kts | 279° |
| 2026-05-09 06:20 | 20.62071 | -100.18655 | 6289 ft | 7 kts | 239° |
| 2026-05-09 06:20 | 20.62029 | -100.18680 | 6289 ft | 6 kts | 195° |
| 2026-05-09 06:20 | 20.61984 | -100.18692 | 6289 ft | 6 kts | 198° |
| 2026-05-09 06:21 | 20.61945 | -100.18724 | 6288 ft | 7 kts | 242° |
| 2026-05-09 06:21 | 20.61943 | -100.18776 | 6287 ft | 7 kts | 279° |
| 2026-05-09 06:21 | 20.61952 | -100.18827 | 6286 ft | 6 kts | 280° |
| 2026-05-09 06:21 | 20.61962 | -100.18881 | 6286 ft | 8 kts | 281° |
| 2026-05-09 06:22 | 20.61975 | -100.18956 | 6285 ft | 11 kts | 281° |
| 2026-05-09 06:22 | 20.61994 | -100.19054 | 6284 ft | 15 kts | 282° |
| 2026-05-09 06:22 | 20.62015 | -100.19165 | 6282 ft | 16 kts | 281° |
| 2026-05-09 06:22 | 20.62038 | -100.19292 | 6282 ft | 17 kts | 281° |
| 2026-05-09 06:23 | 20.62062 | -100.19424 | 6282 ft | 18 kts | 281° |
| 2026-05-09 06:23 | 20.62086 | -100.19554 | 6281 ft | 17 kts | 281° |
| 2026-05-09 06:23 | 20.62108 | -100.19678 | 6278 ft | 16 kts | 281° |
| 2026-05-09 06:23 | 20.62129 | -100.19790 | 6278 ft | 14 kts | 281° |
| 2026-05-09 06:24 | 20.62148 | -100.19890 | 6277 ft | 13 kts | 281° |
| 2026-05-09 06:24 | 20.62165 | -100.19984 | 6275 ft | 12 kts | 281° |
| 2026-05-09 06:24 | 20.62180 | -100.20062 | 6275 ft | 8 kts | 281° |
| 2026-05-09 06:24 | 20.62188 | -100.20118 | 6275 ft | 6 kts | 271° |
| 2026-05-09 06:25 | 20.62172 | -100.20158 | 6275 ft | 5 kts | 221° |
| 2026-05-09 06:25 | 20.62142 | -100.20171 | 6275 ft | 0 kts | 194° |
| 2026-05-09 06:25 | 20.62141 | -100.20172 | 6275 ft | 0 kts | 194° |
| 2026-05-09 06:26 | 20.62138 | -100.20173 | 6275 ft | 2 kts | 193° |
| 2026-05-09 06:26 | 20.62114 | -100.20179 | 6275 ft | 4 kts | 192° |
| 2026-05-09 06:26 | 20.62079 | -100.20185 | 6275 ft | 5 kts | 185° |
| 2026-05-09 06:26 | 20.62046 | -100.20176 | 6275 ft | 4 kts | 141° |
| 2026-05-09 06:27 | 20.62031 | -100.20152 | 6275 ft | 3 kts | 109° |
| 2026-05-09 06:27 | 20.62028 | -100.20137 | 6276 ft | 0 kts | 103° |
| 2026-05-09 06:27 | 20.61999 | -100.19982 | 6280 ft | 52 kts | 100° |
| 2026-05-09 06:28 | 20.61885 | -100.19355 | 6284 ft | 117 kts | 100° |
| 2026-05-09 06:28 | 20.61679 | -100.18289 | 6326 ft | 171 kts | 100° |
| 2026-05-09 06:28 | 20.61372 | -100.17049 | 6944 ft | 178 kts | 103° |
| 2026-05-09 06:28 | 20.61000 | -100.15845 | 7793 ft | 167 kts | 99° |
| 2026-05-09 06:29 | 20.60895 | -100.14562 | 7984 ft | 184 kts | 88° |
| 2026-05-09 06:29 | 20.60837 | -100.13150 | 8265 ft | 200 kts | 91° |
| 2026-05-09 06:29 | 20.60714 | -100.11585 | 8462 ft | 223 kts | 93° |
| 2026-05-09 06:29 | 20.60551 | -100.09867 | 8794 ft | 241 kts | 94° |
| 2026-05-09 06:30 | 20.60356 | -100.08007 | 9132 ft | 261 kts | 95° |
| 2026-05-09 06:30 | 20.60136 | -100.06022 | 9475 ft | 280 kts | 95° |
| 2026-05-09 06:30 | 20.59896 | -100.03927 | 10030 ft | 290 kts | 96° |
| 2026-05-09 06:30 | 20.59620 | -100.01748 | 10537 ft | 304 kts | 97° |
| 2026-05-09 06:31 | 20.59312 | -99.99437 | 10779 ft | 326 kts | 92° |
| 2026-05-09 06:31 | 20.59486 | -99.96971 | 11042 ft | 344 kts | 75° |
| 2026-05-09 06:31 | 20.60413 | -99.94598 | 11627 ft | 351 kts | 57° |
| 2026-05-09 06:31 | 20.61995 | -99.92572 | 12196 ft | 357 kts | 39° |
| 2026-05-09 06:32 | 20.64053 | -99.91135 | 12807 ft | 359 kts | 22° |
| 2026-05-09 06:32 | 20.66477 | -99.90370 | 13434 ft | 359 kts | 4° |
| 2026-05-09 06:32 | 20.68943 | -99.90388 | 14085 ft | 356 kts | 347° |
| 2026-05-09 06:33 | 20.73295 | -99.92612 | 15397 ft | 350 kts | 314° |
| 2026-05-09 06:33 | 20.74836 | -99.94638 | 15990 ft | 349 kts | 300° |
| 2026-05-09 06:33 | 20.75994 | -99.96899 | 16626 ft | 350 kts | 295° |
| 2026-05-09 06:34 | 20.77780 | -100.01766 | 17818 ft | 353 kts | 286° |
| 2026-05-09 06:34 | 20.78599 | -100.04213 | 18456 ft | 353 kts | 297° |
| 2026-05-09 06:34 | 20.80009 | -100.06352 | 18966 ft | 358 kts | 312° |
| 2026-05-09 06:34 | 20.81990 | -100.08009 | 19517 ft | 364 kts | 328° |
| 2026-05-09 06:35 | 20.84345 | -100.09003 | 20086 ft | 370 kts | 343° |
| 2026-05-09 06:35 | 20.86973 | -100.09283 | 20546 ft | 381 kts | 358° |
| 2026-05-09 06:35 | 20.89616 | -100.08824 | 21012 ft | 391 kts | 11° |
| 2026-05-09 06:35 | 20.92179 | -100.07755 | 21562 ft | 397 kts | 21° |
| 2026-05-09 06:36 | 20.94533 | -100.06181 | 21963 ft | 408 kts | 32° |
| 2026-05-09 06:36 | 20.96643 | -100.04099 | 22372 ft | 418 kts | 42° |
| 2026-05-09 06:36 | 20.98444 | -100.01555 | 22675 ft | 432 kts | 53° |
| 2026-05-09 06:36 | 20.99807 | -99.98656 | 23121 ft | 441 kts | 63° |
| 2026-05-09 06:37 | 21.00764 | -99.95509 | 23484 ft | 449 kts | 69° |
| 2026-05-09 06:37 | 21.01632 | -99.92287 | 23888 ft | 451 kts | 69° |
| 2026-05-09 06:37 | 21.02509 | -99.89057 | 24245 ft | 456 kts | 69° |
| 2026-05-09 06:37 | 21.03401 | -99.85771 | 24686 ft | 459 kts | 69° |
| 2026-05-09 06:38 | 21.04285 | -99.82516 | 25004 ft | 464 kts | 69° |
| 2026-05-09 06:38 | 21.05238 | -99.79186 | 25450 ft | 464 kts | 65° |
| 2026-05-09 06:38 | 21.06565 | -99.76086 | 25875 ft | 459 kts | 54° |
| 2026-05-09 06:38 | 21.08368 | -99.73229 | 26194 ft | 456 kts | 45° |
| 2026-05-09 06:39 | 21.10457 | -99.70671 | 26594 ft | 455 kts | 41° |
| 2026-05-09 06:39 | 21.12627 | -99.68201 | 26827 ft | 460 kts | 39° |
| 2026-05-09 06:39 | 21.14872 | -99.65745 | 27314 ft | 460 kts | 39° |
| 2026-05-09 06:39 | 21.17135 | -99.63321 | 27541 ft | 465 kts | 38° |
| 2026-05-09 06:40 | 21.19449 | -99.60876 | 27977 ft | 465 kts | 38° |
| 2026-05-09 06:40 | 21.21783 | -99.58426 | 28249 ft | 469 kts | 38° |
| 2026-05-09 06:40 | 21.24121 | -99.55984 | 28565 ft | 473 kts | 38° |
| 2026-05-09 06:40 | 21.26485 | -99.53519 | 28938 ft | 474 kts | 38° |
| 2026-05-09 06:41 | 21.28856 | -99.51054 | 29169 ft | 479 kts | 37° |
| 2026-05-09 06:41 | 21.31279 | -99.48532 | 29472 ft | 482 kts | 38° |
| 2026-05-09 06:41 | 21.33703 | -99.46013 | 29720 ft | 486 kts | 38° |
| 2026-05-09 06:41 | 21.36127 | -99.43489 | 30039 ft | 488 kts | 38° |
| 2026-05-09 06:42 | 21.38591 | -99.40925 | 30299 ft | 491 kts | 38° |
| 2026-05-09 06:42 | 21.41032 | -99.38386 | 30503 ft | 495 kts | 38° |
| 2026-05-09 06:42 | 21.43502 | -99.35810 | 30945 ft | 493 kts | 38° |
| 2026-05-09 06:42 | 21.46013 | -99.33194 | 31198 ft | 496 kts | 38° |
| 2026-05-09 06:43 | 21.48477 | -99.30621 | 31644 ft | 494 kts | 39° |
| 2026-05-09 06:43 | 21.50972 | -99.28018 | 31869 ft | 496 kts | 38° |
| 2026-05-09 06:43 | 21.53455 | -99.25425 | 32259 ft | 495 kts | 38° |
| 2026-05-09 06:43 | 21.55925 | -99.22848 | 32415 ft | 498 kts | 38° |
| 2026-05-09 06:44 | 21.58400 | -99.20258 | 32786 ft | 497 kts | 38° |
| 2026-05-09 06:44 | 21.60922 | -99.17622 | 33088 ft | 497 kts | 38° |
| 2026-05-09 06:44 | 21.63391 | -99.15040 | 33374 ft | 499 kts | 38° |
| 2026-05-09 06:44 | 21.65893 | -99.12422 | 33752 ft | 498 kts | 38° |
| 2026-05-09 06:45 | 21.68378 | -99.09820 | 34012 ft | 499 kts | 38° |
| 2026-05-09 06:45 | 21.70885 | -99.07193 | 34380 ft | 499 kts | 38° |
| 2026-05-09 06:45 | 21.73392 | -99.04563 | 34781 ft | 498 kts | 38° |
| 2026-05-09 06:45 | 21.75847 | -99.01988 | 35115 ft | 494 kts | 38° |
| 2026-05-09 06:46 | 21.80796 | -98.96793 | 35100 ft | 494 kts | 38° |
| 2026-05-09 06:46 | 21.85744 | -98.91595 | 35088 ft | 495 kts | 38° |
| 2026-05-09 06:47 | 21.90677 | -98.86410 | 35092 ft | 496 kts | 38° |
| 2026-05-09 06:47 | 21.95599 | -98.81228 | 35084 ft | 495 kts | 38° |
| 2026-05-09 06:48 | 22.00551 | -98.76001 | 35075 ft | 495 kts | 38° |
| 2026-05-09 06:48 | 22.05503 | -98.70785 | 35078 ft | 497 kts | 38° |
| 2026-05-09 06:49 | 22.10544 | -98.65688 | 35088 ft | 491 kts | 30° |
| 2026-05-09 06:49 | 22.16384 | -98.62180 | 35091 ft | 471 kts | 11° |
| 2026-05-09 06:50 | 22.19483 | -98.61251 | 35097 ft | 456 kts | 0° |
| 2026-05-09 06:50 | 22.22628 | -98.60869 | 35100 ft | 445 kts | 353° |
| 2026-05-09 06:50 | 22.28827 | -98.60599 | 35084 ft | 444 kts | 353° |
| 2026-05-09 06:51 | 22.35021 | -98.60339 | 35086 ft | 445 kts | 353° |
| 2026-05-09 06:51 | 22.41214 | -98.60062 | 35086 ft | 446 kts | 353° |
| 2026-05-09 06:52 | 22.47442 | -98.59785 | 35082 ft | 446 kts | 352° |
| 2026-05-09 06:52 | 22.53668 | -98.59500 | 35082 ft | 445 kts | 352° |
| 2026-05-09 06:53 | 22.59878 | -98.59210 | 35088 ft | 444 kts | 352° |
| 2026-05-09 06:53 | 22.66048 | -98.58931 | 35084 ft | 443 kts | 352° |
| 2026-05-09 06:54 | 22.72247 | -98.58578 | 35089 ft | 445 kts | 353° |
| 2026-05-09 06:54 | 22.78456 | -98.58164 | 35091 ft | 443 kts | 353° |
| 2026-05-09 06:55 | 22.84632 | -98.57755 | 35095 ft | 444 kts | 353° |
| 2026-05-09 06:55 | 22.90817 | -98.57340 | 35100 ft | 443 kts | 353° |
| 2026-05-09 06:56 | 22.97041 | -98.56924 | 35109 ft | 444 kts | 353° |
| 2026-05-09 06:56 | 23.03233 | -98.56511 | 35113 ft | 444 kts | 353° |
| 2026-05-09 06:57 | 23.09417 | -98.56019 | 35131 ft | 444 kts | 356° |
| 2026-05-09 06:57 | 23.15603 | -98.54898 | 35152 ft | 456 kts | 4° |
| 2026-05-09 06:58 | 23.21582 | -98.52233 | 35183 ft | 478 kts | 23° |
| 2026-05-09 06:58 | 23.24357 | -98.50050 | 35195 ft | 493 kts | 33° |
| 2026-05-09 06:58 | 23.26803 | -98.47420 | 35197 ft | 504 kts | 42° |
| 2026-05-09 06:59 | 23.31448 | -98.41725 | 35174 ft | 500 kts | 40° |
| 2026-05-09 06:59 | 23.36542 | -98.36743 | 35171 ft | 482 kts | 24° |
| 2026-05-09 07:00 | 23.39461 | -98.34972 | 35169 ft | 469 kts | 14° |
| 2026-05-09 07:00 | 23.42459 | -98.33678 | 35128 ft | 464 kts | 10° |
| 2026-05-09 07:00 | 23.48602 | -98.31361 | 35112 ft | 462 kts | 8° |
| 2026-05-09 07:01 | 23.54693 | -98.29197 | 35102 ft | 460 kts | 7° |
| 2026-05-09 07:01 | 23.60800 | -98.27078 | 35095 ft | 458 kts | 7° |
| 2026-05-09 07:02 | 23.66932 | -98.24970 | 35089 ft | 460 kts | 7° |
| 2026-05-09 07:02 | 23.73034 | -98.22872 | 35080 ft | 457 kts | 7° |
| 2026-05-09 07:03 | 23.79123 | -98.20783 | 35079 ft | 459 kts | 7° |
| 2026-05-09 07:03 | 23.85239 | -98.18682 | 35077 ft | 459 kts | 7° |
| 2026-05-09 07:04 | 23.91357 | -98.16576 | 35070 ft | 457 kts | 7° |
| 2026-05-09 07:04 | 23.97407 | -98.14494 | 35068 ft | 455 kts | 7° |
| 2026-05-09 07:05 | 24.03501 | -98.12395 | 35073 ft | 457 kts | 7° |
| 2026-05-09 07:05 | 24.09605 | -98.10289 | 35073 ft | 456 kts | 7° |
| 2026-05-09 07:06 | 24.15702 | -98.08183 | 35079 ft | 454 kts | 7° |
| 2026-05-09 07:06 | 24.21770 | -98.06090 | 35080 ft | 459 kts | 7° |
| 2026-05-09 07:07 | 24.27884 | -98.03973 | 35073 ft | 454 kts | 7° |
| 2026-05-09 07:07 | 24.33912 | -98.01888 | 35073 ft | 455 kts | 7° |
| 2026-05-09 07:08 | 24.40009 | -97.99779 | 35075 ft | 459 kts | 7° |
| 2026-05-09 07:08 | 24.46076 | -97.97673 | 35074 ft | 453 kts | 7° |
| 2026-05-09 07:09 | 24.52143 | -97.95572 | 35082 ft | 458 kts | 7° |
| 2026-05-09 07:09 | 24.58213 | -97.93459 | 35080 ft | 453 kts | 7° |
| 2026-05-09 07:10 | 24.64250 | -97.91363 | 35080 ft | 454 kts | 7° |
| 2026-05-09 07:10 | 24.70341 | -97.89243 | 35081 ft | 453 kts | 7° |
| 2026-05-09 07:11 | 24.76360 | -97.87146 | 35076 ft | 453 kts | 7° |
| 2026-05-09 07:11 | 24.82429 | -97.85029 | 35077 ft | 453 kts | 7° |
| 2026-05-09 07:12 | 24.88463 | -97.82925 | 35067 ft | 455 kts | 7° |
| 2026-05-09 07:12 | 24.94493 | -97.80814 | 35059 ft | 450 kts | 7° |
| 2026-05-09 07:13 | 25.00497 | -97.78717 | 35055 ft | 454 kts | 8° |
| 2026-05-09 07:13 | 25.06586 | -97.76584 | 35056 ft | 453 kts | 7° |
| 2026-05-09 07:14 | 25.12609 | -97.74472 | 35061 ft | 453 kts | 8° |
| 2026-05-09 07:14 | 25.18698 | -97.72524 | 35061 ft | 454 kts | 7° |
| 2026-05-09 07:15 | 25.24793 | -97.70488 | 35064 ft | 454 kts | 7° |
| 2026-05-09 07:15 | 25.30834 | -97.68403 | 35069 ft | 456 kts | 8° |
| 2026-05-09 07:16 | 25.36914 | -97.66275 | 35065 ft | 454 kts | 8° |
| 2026-05-09 07:16 | 25.42965 | -97.64143 | 35066 ft | 455 kts | 8° |
| 2026-05-09 07:17 | 25.49025 | -97.62002 | 35068 ft | 457 kts | 8° |
| 2026-05-09 07:17 | 25.55081 | -97.59857 | 35069 ft | 455 kts | 9° |
| 2026-05-09 07:18 | 25.61152 | -97.57707 | 35078 ft | 458 kts | 9° |
| 2026-05-09 07:18 | 25.67247 | -97.55544 | 35076 ft | 456 kts | 9° |
| 2026-05-09 07:19 | 25.73288 | -97.53382 | 35079 ft | 459 kts | 12° |
| 2026-05-09 07:19 | 25.79014 | -97.49881 | 35089 ft | 478 kts | 31° |
| 2026-05-09 07:20 | 25.84142 | -97.45021 | 35080 ft | 484 kts | 34° |
| 2026-05-09 07:20 | 25.89212 | -97.40153 | 35085 ft | 481 kts | 31° |
| 2026-05-09 07:21 | 25.94888 | -97.36492 | 35093 ft | 462 kts | 13° |
| 2026-05-09 07:21 | 26.00947 | -97.34129 | 35066 ft | 460 kts | 11° |
| 2026-05-09 07:22 | 26.07024 | -97.31844 | 35067 ft | 457 kts | 11° |
| 2026-05-09 07:22 | 26.13131 | -97.29582 | 35070 ft | 461 kts | 11° |
| 2026-05-09 07:23 | 26.19206 | -97.27339 | 35068 ft | 460 kts | 11° |
| 2026-05-09 07:23 | 26.25338 | -97.25077 | 35065 ft | 461 kts | 11° |
| 2026-05-09 07:24 | 26.31439 | -97.22826 | 35062 ft | 459 kts | 11° |
| 2026-05-09 07:24 | 26.37515 | -97.20582 | 35063 ft | 460 kts | 11° |
| 2026-05-09 07:25 | 26.43622 | -97.18323 | 35059 ft | 460 kts | 11° |
| 2026-05-09 07:25 | 26.49696 | -97.16075 | 35053 ft | 460 kts | 11° |
| 2026-05-09 07:26 | 26.55820 | -97.13805 | 35062 ft | 460 kts | 11° |
| 2026-05-09 07:26 | 26.61898 | -97.11551 | 35059 ft | 460 kts | 11° |
| 2026-05-09 07:27 | 26.68002 | -97.09284 | 35053 ft | 461 kts | 11° |
| 2026-05-09 07:27 | 26.74083 | -97.07022 | 35055 ft | 460 kts | 11° |
| 2026-05-09 07:28 | 26.80217 | -97.04739 | 35048 ft | 460 kts | 11° |
| 2026-05-09 07:28 | 26.86279 | -97.02480 | 35052 ft | 459 kts | 11° |
| 2026-05-09 07:29 | 26.92359 | -97.00211 | 35050 ft | 460 kts | 11° |
| 2026-05-09 07:29 | 26.98440 | -96.97941 | 35049 ft | 460 kts | 11° |
| 2026-05-09 07:30 | 27.04532 | -96.95662 | 35050 ft | 460 kts | 11° |
| 2026-05-09 07:30 | 27.10619 | -96.93385 | 35041 ft | 462 kts | 12° |
| 2026-05-09 07:31 | 27.16757 | -96.91082 | 35047 ft | 460 kts | 12° |
| 2026-05-09 07:31 | 27.22851 | -96.88796 | 35057 ft | 460 kts | 12° |
| 2026-05-09 07:32 | 27.28952 | -96.86499 | 35045 ft | 461 kts | 12° |
| 2026-05-09 07:32 | 27.35044 | -96.84209 | 35048 ft | 459 kts | 12° |
| 2026-05-09 07:33 | 27.44190 | -96.80768 | 35047 ft | 462 kts | 12° |
| 2026-05-09 07:34 | 27.50296 | -96.78464 | 35051 ft | 461 kts | 12° |
| 2026-05-09 07:34 | 27.56408 | -96.76156 | 35054 ft | 459 kts | 12° |
| 2026-05-09 07:35 | 27.62467 | -96.73866 | 35048 ft | 460 kts | 13° |
| 2026-05-09 07:35 | 27.68553 | -96.71562 | 35054 ft | 460 kts | 13° |
| 2026-05-09 07:36 | 27.74641 | -96.69255 | 35051 ft | 460 kts | 13° |
| 2026-05-09 07:36 | 27.80718 | -96.66949 | 35051 ft | 461 kts | 13° |
| 2026-05-09 07:37 | 27.86843 | -96.64623 | 35045 ft | 461 kts | 13° |
| 2026-05-09 07:37 | 27.92912 | -96.62314 | 35052 ft | 460 kts | 13° |
| 2026-05-09 07:38 | 27.98987 | -96.60001 | 35050 ft | 460 kts | 13° |
| 2026-05-09 07:38 | 28.05075 | -96.57680 | 35053 ft | 460 kts | 13° |
| 2026-05-09 07:39 | 28.11135 | -96.55367 | 35057 ft | 459 kts | 13° |
| 2026-05-09 07:39 | 28.17236 | -96.53035 | 35059 ft | 459 kts | 14° |
| 2026-05-09 07:40 | 28.23304 | -96.50714 | 35055 ft | 459 kts | 14° |
| 2026-05-09 07:40 | 28.29400 | -96.48379 | 35055 ft | 459 kts | 14° |
| 2026-05-09 07:41 | 28.35417 | -96.46071 | 35057 ft | 458 kts | 14° |
| 2026-05-09 07:41 | 28.41491 | -96.43739 | 35061 ft | 458 kts | 14° |
| 2026-05-09 07:42 | 28.47554 | -96.41407 | 35057 ft | 458 kts | 14° |
| 2026-05-09 07:42 | 28.53633 | -96.39068 | 35059 ft | 457 kts | 14° |
| 2026-05-09 07:43 | 28.59664 | -96.36743 | 35059 ft | 458 kts | 14° |
| 2026-05-09 07:43 | 28.65722 | -96.34405 | 35052 ft | 457 kts | 15° |
| 2026-05-09 07:44 | 28.71778 | -96.32066 | 35052 ft | 458 kts | 15° |
| 2026-05-09 07:44 | 28.77600 | -96.29076 | 35064 ft | 464 kts | 30° |
| 2026-05-09 07:45 | 28.83027 | -96.25047 | 35053 ft | 464 kts | 31° |
| 2026-05-09 07:45 | 28.88372 | -96.20925 | 35051 ft | 465 kts | 31° |
| 2026-05-09 07:46 | 28.93698 | -96.16729 | 35051 ft | 465 kts | 32° |
| 2026-05-09 07:46 | 28.99030 | -96.12492 | 35051 ft | 465 kts | 32° |
| 2026-05-09 07:47 | 29.04338 | -96.08259 | 35051 ft | 464 kts | 32° |
| 2026-05-09 07:47 | 29.09640 | -96.04021 | 35056 ft | 463 kts | 32° |
| 2026-05-09 07:48 | 29.14951 | -95.99769 | 35058 ft | 464 kts | 32° |
| 2026-05-09 07:48 | 29.20260 | -95.95512 | 35058 ft | 463 kts | 33° |
| 2026-05-09 07:49 | 29.25462 | -95.91135 | 35067 ft | 464 kts | 37° |
| 2026-05-09 07:49 | 29.30607 | -95.86604 | 35060 ft | 464 kts | 34° |
| 2026-05-09 07:50 | 29.35827 | -95.82266 | 35057 ft | 463 kts | 33° |
| 2026-05-09 07:50 | 29.41105 | -95.77964 | 35061 ft | 464 kts | 33° |
| 2026-05-09 07:51 | 29.46388 | -95.73684 | 35065 ft | 463 kts | 33° |
| 2026-05-09 07:51 | 29.51706 | -95.69475 | 35072 ft | 463 kts | 32° |
| 2026-05-09 07:52 | 29.56994 | -95.65173 | 35069 ft | 463 kts | 33° |
| 2026-05-09 07:52 | 29.62244 | -95.60872 | 35072 ft | 462 kts | 33° |
| 2026-05-09 07:53 | 29.67512 | -95.56601 | 35075 ft | 462 kts | 31° |
| 2026-05-09 07:53 | 29.72943 | -95.52676 | 35074 ft | 463 kts | 31° |
| 2026-05-09 07:54 | 29.78304 | -95.48507 | 35072 ft | 462 kts | 32° |
| 2026-05-09 07:54 | 29.83573 | -95.44285 | 35075 ft | 462 kts | 33° |
| 2026-05-09 07:55 | 29.88845 | -95.40010 | 35075 ft | 462 kts | 33° |
| 2026-05-09 07:55 | 29.94131 | -95.35702 | 35078 ft | 462 kts | 33° |
| 2026-05-09 07:56 | 29.99457 | -95.31581 | 35075 ft | 461 kts | 32° |
| 2026-05-09 07:56 | 30.04668 | -95.27217 | 35078 ft | 462 kts | 34° |
| 2026-05-09 07:57 | 30.09962 | -95.22977 | 35073 ft | 462 kts | 33° |
| 2026-05-09 07:57 | 30.15314 | -95.18831 | 35077 ft | 463 kts | 32° |
| 2026-05-09 07:58 | 30.20701 | -95.14707 | 35070 ft | 462 kts | 32° |
| 2026-05-09 07:58 | 30.26068 | -95.10615 | 35075 ft | 462 kts | 32° |
| 2026-05-09 07:59 | 30.31469 | -95.06496 | 35072 ft | 462 kts | 32° |
| 2026-05-09 07:59 | 30.36836 | -95.02400 | 35069 ft | 462 kts | 32° |
| 2026-05-09 08:00 | 30.42221 | -94.98286 | 35073 ft | 462 kts | 32° |
| 2026-05-09 08:00 | 30.47618 | -94.94158 | 35073 ft | 462 kts | 32° |
| 2026-05-09 08:01 | 30.52997 | -94.90037 | 35073 ft | 463 kts | 32° |
| 2026-05-09 08:01 | 30.58364 | -94.85922 | 35068 ft | 461 kts | 33° |
| 2026-05-09 08:02 | 30.63706 | -94.81818 | 35067 ft | 462 kts | 33° |
| 2026-05-09 08:02 | 30.69079 | -94.77685 | 35062 ft | 461 kts | 33° |
| 2026-05-09 08:03 | 30.74418 | -94.73573 | 35061 ft | 460 kts | 33° |
| 2026-05-09 08:03 | 30.79796 | -94.69426 | 35059 ft | 460 kts | 33° |
| 2026-05-09 08:04 | 30.85135 | -94.65302 | 35059 ft | 461 kts | 33° |
| 2026-05-09 08:04 | 30.90500 | -94.61154 | 35059 ft | 461 kts | 33° |
| 2026-05-09 08:05 | 30.95844 | -94.57016 | 35056 ft | 460 kts | 33° |
| 2026-05-09 08:05 | 31.01191 | -94.52870 | 35054 ft | 460 kts | 33° |
| 2026-05-09 08:06 | 31.06547 | -94.48711 | 35052 ft | 458 kts | 33° |
| 2026-05-09 08:06 | 31.11897 | -94.44551 | 35049 ft | 460 kts | 33° |
| 2026-05-09 08:07 | 31.17207 | -94.40417 | 35050 ft | 459 kts | 33° |
| 2026-05-09 08:07 | 31.22560 | -94.36243 | 35049 ft | 459 kts | 33° |
| 2026-05-09 08:08 | 31.27868 | -94.32098 | 35048 ft | 460 kts | 33° |
| 2026-05-09 08:08 | 31.33209 | -94.27924 | 35042 ft | 460 kts | 34° |
| 2026-05-09 08:09 | 31.38512 | -94.23772 | 35048 ft | 459 kts | 34° |
| 2026-05-09 08:09 | 31.43837 | -94.19598 | 35048 ft | 459 kts | 34° |
| 2026-05-09 08:10 | 31.49141 | -94.15436 | 35046 ft | 459 kts | 34° |
| 2026-05-09 08:10 | 31.54455 | -94.11259 | 35042 ft | 458 kts | 34° |
| 2026-05-09 08:11 | 31.59741 | -94.07098 | 35051 ft | 458 kts | 34° |
| 2026-05-09 08:11 | 31.65052 | -94.02911 | 35046 ft | 459 kts | 34° |
| 2026-05-09 08:12 | 31.73016 | -93.96624 | 35050 ft | 458 kts | 34° |
| 2026-05-09 08:12 | 31.78309 | -93.92436 | 35043 ft | 458 kts | 34° |
| 2026-05-09 08:13 | 31.83584 | -93.88256 | 35050 ft | 458 kts | 34° |
| 2026-05-09 08:13 | 31.88877 | -93.84055 | 35049 ft | 457 kts | 34° |
| 2026-05-09 08:14 | 31.94126 | -93.79884 | 35045 ft | 457 kts | 34° |
| 2026-05-09 08:14 | 31.99411 | -93.75678 | 35057 ft | 458 kts | 34° |
| 2026-05-09 08:15 | 32.04704 | -93.71460 | 35051 ft | 457 kts | 34° |
| 2026-05-09 08:15 | 32.09970 | -93.67257 | 35043 ft | 459 kts | 34° |
| 2026-05-09 08:16 | 32.15272 | -93.63020 | 35050 ft | 457 kts | 34° |
| 2026-05-09 08:16 | 32.20518 | -93.58821 | 35047 ft | 456 kts | 34° |
| 2026-05-09 08:17 | 32.25773 | -93.54609 | 35041 ft | 456 kts | 34° |
| 2026-05-09 08:17 | 32.31055 | -93.50369 | 35041 ft | 456 kts | 34° |
| 2026-05-09 08:18 | 32.36314 | -93.46141 | 35048 ft | 457 kts | 34° |
| 2026-05-09 08:18 | 32.41585 | -93.41898 | 35039 ft | 456 kts | 34° |
| 2026-05-09 08:19 | 32.46805 | -93.37691 | 35045 ft | 456 kts | 34° |
| 2026-05-09 08:19 | 32.52080 | -93.33433 | 35048 ft | 456 kts | 35° |
| 2026-05-09 08:20 | 32.57315 | -93.29200 | 35045 ft | 456 kts | 35° |
| 2026-05-09 08:20 | 32.62585 | -93.24934 | 35057 ft | 455 kts | 35° |
| 2026-05-09 08:21 | 32.67840 | -93.20673 | 35053 ft | 455 kts | 35° |
| 2026-05-09 08:21 | 32.73080 | -93.16419 | 35044 ft | 454 kts | 35° |
| 2026-05-09 08:22 | 32.78315 | -93.12161 | 35040 ft | 454 kts | 35° |
| 2026-05-09 08:22 | 32.83554 | -93.07895 | 35041 ft | 454 kts | 35° |
| 2026-05-09 08:23 | 32.88752 | -93.03656 | 35019 ft | 453 kts | 35° |
| 2026-05-09 08:23 | 32.93955 | -92.99406 | 35032 ft | 454 kts | 35° |
| 2026-05-09 08:24 | 32.99180 | -92.95132 | 35037 ft | 453 kts | 35° |
| 2026-05-09 08:24 | 33.04552 | -92.91163 | 35051 ft | 454 kts | 33° |
| 2026-05-09 08:25 | 33.09896 | -92.87035 | 35055 ft | 454 kts | 34° |
| 2026-05-09 08:25 | 33.15125 | -92.82834 | 35059 ft | 454 kts | 35° |
| 2026-05-09 08:26 | 33.20371 | -92.78552 | 35060 ft | 453 kts | 35° |
| 2026-05-09 08:26 | 33.25312 | -92.73931 | 35067 ft | 450 kts | 48° |
| 2026-05-09 08:27 | 33.29110 | -92.68008 | 35063 ft | 453 kts | 56° |
| 2026-05-09 08:27 | 33.32780 | -92.61815 | 35055 ft | 452 kts | 56° |
| 2026-05-09 08:28 | 33.36404 | -92.55613 | 35049 ft | 452 kts | 56° |
| 2026-05-09 08:28 | 33.40011 | -92.49406 | 35039 ft | 452 kts | 56° |
| 2026-05-09 08:29 | 33.43599 | -92.43212 | 35045 ft | 453 kts | 56° |
| 2026-05-09 08:29 | 33.47214 | -92.36959 | 35038 ft | 452 kts | 56° |
| 2026-05-09 08:30 | 33.50797 | -92.30749 | 35036 ft | 452 kts | 57° |
| 2026-05-09 08:30 | 33.54358 | -92.24565 | 35048 ft | 453 kts | 57° |
| 2026-05-09 08:31 | 33.57965 | -92.18292 | 35033 ft | 452 kts | 57° |
| 2026-05-09 08:31 | 33.61541 | -92.12060 | 35039 ft | 453 kts | 57° |
| 2026-05-09 08:32 | 33.65108 | -92.05836 | 35040 ft | 452 kts | 57° |
| 2026-05-09 08:32 | 33.68650 | -91.99647 | 34960 ft | 435 kts | 57° |
| 2026-05-09 08:33 | 33.70375 | -91.96627 | 34446 ft | 435 kts | 57° |
| 2026-05-09 08:33 | 33.72086 | -91.93627 | 33861 ft | 436 kts | 57° |
| 2026-05-09 08:33 | 33.73781 | -91.90656 | 33373 ft | 434 kts | 57° |
| 2026-05-09 08:33 | 33.75474 | -91.87684 | 32848 ft | 432 kts | 57° |
| 2026-05-09 08:34 | 33.77161 | -91.84723 | 32373 ft | 429 kts | 57° |
| 2026-05-09 08:34 | 33.78862 | -91.81734 | 31787 ft | 428 kts | 57° |
| 2026-05-09 08:34 | 33.80513 | -91.78828 | 31269 ft | 426 kts | 57° |
| 2026-05-09 08:34 | 33.82178 | -91.75897 | 30742 ft | 423 kts | 57° |
| 2026-05-09 08:35 | 33.83848 | -91.72955 | 30212 ft | 420 kts | 57° |
| 2026-05-09 08:35 | 33.85488 | -91.70064 | 29621 ft | 418 kts | 57° |
| 2026-05-09 08:35 | 33.87117 | -91.67191 | 28894 ft | 419 kts | 57° |
| 2026-05-09 08:35 | 33.88757 | -91.64291 | 27983 ft | 423 kts | 57° |
| 2026-05-09 08:36 | 33.90408 | -91.61372 | 27175 ft | 424 kts | 57° |
| 2026-05-09 08:36 | 33.92052 | -91.58466 | 26331 ft | 425 kts | 56° |
| 2026-05-09 08:36 | 33.93881 | -91.55669 | 25645 ft | 422 kts | 50° |
| 2026-05-09 08:36 | 33.95812 | -91.53012 | 24990 ft | 419 kts | 50° |
| 2026-05-09 08:37 | 33.97701 | -91.50397 | 24361 ft | 415 kts | 50° |
| 2026-05-09 08:37 | 33.99590 | -91.47789 | 23725 ft | 411 kts | 49° |
| 2026-05-09 08:37 | 34.01466 | -91.45199 | 23139 ft | 407 kts | 49° |
| 2026-05-09 08:37 | 34.03328 | -91.42631 | 22493 ft | 404 kts | 49° |
| 2026-05-09 08:38 | 34.05139 | -91.40131 | 21959 ft | 398 kts | 49° |
| 2026-05-09 08:38 | 34.06950 | -91.37631 | 21305 ft | 396 kts | 50° |
| 2026-05-09 08:38 | 34.08746 | -91.35151 | 21007 ft | 383 kts | 49° |
| 2026-05-09 08:38 | 34.10474 | -91.32761 | 21022 ft | 377 kts | 50° |
| 2026-05-09 08:39 | 34.12258 | -91.30292 | 21034 ft | 395 kts | 50° |
| 2026-05-09 08:39 | 34.14069 | -91.27785 | 21026 ft | 393 kts | 50° |
| 2026-05-09 08:39 | 34.15856 | -91.25312 | 20551 ft | 390 kts | 50° |
| 2026-05-09 08:39 | 34.17610 | -91.22881 | 19968 ft | 386 kts | 51° |
| 2026-05-09 08:40 | 34.19360 | -91.20456 | 19372 ft | 382 kts | 51° |
| 2026-05-09 08:40 | 34.21074 | -91.18085 | 19197 ft | 365 kts | 51° |
| 2026-05-09 08:40 | 34.22718 | -91.15810 | 19147 ft | 347 kts | 51° |
| 2026-05-09 08:40 | 34.24277 | -91.13650 | 18915 ft | 343 kts | 51° |
| 2026-05-09 08:41 | 34.25867 | -91.11443 | 18380 ft | 351 kts | 51° |
| 2026-05-09 08:41 | 34.27445 | -91.09257 | 18300 ft | 337 kts | 51° |
| 2026-05-09 08:41 | 34.28981 | -91.07124 | 18361 ft | 334 kts | 51° |
| 2026-05-09 08:41 | 34.30528 | -91.04973 | 18365 ft | 346 kts | 51° |
| 2026-05-09 08:42 | 34.32111 | -91.02773 | 18354 ft | 346 kts | 51° |
| 2026-05-09 08:42 | 34.33678 | -91.00597 | 18354 ft | 342 kts | 51° |
| 2026-05-09 08:42 | 34.35238 | -90.98427 | 18357 ft | 343 kts | 51° |
| 2026-05-09 08:42 | 34.36821 | -90.96223 | 18357 ft | 344 kts | 51° |
| 2026-05-09 08:43 | 34.38383 | -90.94045 | 18357 ft | 344 kts | 51° |
| 2026-05-09 08:43 | 34.39946 | -90.91869 | 18361 ft | 343 kts | 51° |
| 2026-05-09 08:43 | 34.41521 | -90.89673 | 18357 ft | 343 kts | 51° |
| 2026-05-09 08:43 | 34.43093 | -90.87479 | 18236 ft | 342 kts | 51° |
| 2026-05-09 08:44 | 34.44666 | -90.85284 | 17609 ft | 346 kts | 52° |
| 2026-05-09 08:44 | 34.46235 | -90.83092 | 17095 ft | 344 kts | 51° |
| 2026-05-09 08:44 | 34.47787 | -90.80923 | 16597 ft | 341 kts | 52° |
| 2026-05-09 08:44 | 34.49336 | -90.78756 | 16120 ft | 337 kts | 52° |
| 2026-05-09 08:45 | 34.50842 | -90.76597 | 15593 ft | 335 kts | 53° |
| 2026-05-09 08:45 | 34.52317 | -90.74438 | 15129 ft | 332 kts | 53° |
| 2026-05-09 08:45 | 34.53780 | -90.72300 | 14633 ft | 329 kts | 53° |
| 2026-05-09 08:45 | 34.55239 | -90.70167 | 14114 ft | 328 kts | 53° |
| 2026-05-09 08:46 | 34.56698 | -90.68031 | 13591 ft | 326 kts | 53° |
| 2026-05-09 08:46 | 34.58140 | -90.65922 | 13118 ft | 323 kts | 53° |
| 2026-05-09 08:46 | 34.59564 | -90.63836 | 12669 ft | 319 kts | 53° |
| 2026-05-09 08:46 | 34.60969 | -90.61777 | 12256 ft | 314 kts | 53° |
| 2026-05-09 08:47 | 34.62338 | -90.59722 | 11773 ft | 312 kts | 55° |
| 2026-05-09 08:47 | 34.63646 | -90.57671 | 11340 ft | 307 kts | 55° |
| 2026-05-09 08:47 | 34.64958 | -90.55623 | 10848 ft | 305 kts | 55° |
| 2026-05-09 08:47 | 34.66243 | -90.53615 | 10409 ft | 301 kts | 55° |
| 2026-05-09 08:48 | 34.67514 | -90.51630 | 10063 ft | 294 kts | 55° |
| 2026-05-09 08:48 | 34.68763 | -90.49679 | 10045 ft | 288 kts | 55° |
| 2026-05-09 08:48 | 34.70024 | -90.47701 | 10053 ft | 300 kts | 55° |
| 2026-05-09 08:48 | 34.71301 | -90.45703 | 10047 ft | 300 kts | 55° |
| 2026-05-09 08:49 | 34.72568 | -90.43722 | 10045 ft | 288 kts | 55° |
| 2026-05-09 08:49 | 34.73765 | -90.41853 | 10035 ft | 271 kts | 55° |
| 2026-05-09 08:49 | 34.74889 | -90.40092 | 10046 ft | 258 kts | 56° |
| 2026-05-09 08:49 | 34.76006 | -90.38335 | 10058 ft | 263 kts | 56° |
| 2026-05-09 08:50 | 34.77129 | -90.36571 | 10065 ft | 267 kts | 56° |
| 2026-05-09 08:50 | 34.78270 | -90.34780 | 10056 ft | 262 kts | 56° |
| 2026-05-09 08:50 | 34.79369 | -90.33058 | 10063 ft | 255 kts | 56° |
| 2026-05-09 08:50 | 34.80448 | -90.31362 | 10060 ft | 252 kts | 56° |
| 2026-05-09 08:51 | 34.81518 | -90.29677 | 10068 ft | 254 kts | 56° |
| 2026-05-09 08:51 | 34.82605 | -90.27967 | 10068 ft | 255 kts | 56° |
| 2026-05-09 08:51 | 34.83702 | -90.26240 | 10062 ft | 257 kts | 56° |
| 2026-05-09 08:51 | 34.84797 | -90.24515 | 10057 ft | 258 kts | 56° |
| 2026-05-09 08:52 | 34.85906 | -90.22771 | 10075 ft | 258 kts | 56° |
| 2026-05-09 08:52 | 34.87003 | -90.21040 | 10080 ft | 259 kts | 56° |
| 2026-05-09 08:52 | 34.88108 | -90.19299 | 10075 ft | 258 kts | 56° |
| 2026-05-09 08:52 | 34.89202 | -90.17573 | 10074 ft | 259 kts | 56° |
| 2026-05-09 08:53 | 34.90303 | -90.15836 | 10033 ft | 260 kts | 56° |
| 2026-05-09 08:53 | 34.91405 | -90.14095 | 9887 ft | 259 kts | 56° |
| 2026-05-09 08:53 | 34.92555 | -90.12401 | 9719 ft | 257 kts | 46° |
| 2026-05-09 08:53 | 34.94133 | -90.11363 | 9551 ft | 267 kts | 18° |
| 2026-05-09 08:54 | 34.95978 | -90.11173 | 9533 ft | 261 kts | 8° |
| 2026-05-09 08:54 | 34.97746 | -90.11101 | 9423 ft | 244 kts | 9° |
| 2026-05-09 08:54 | 34.99396 | -90.11039 | 9412 ft | 232 kts | 9° |
| 2026-05-09 08:54 | 35.01040 | -90.10983 | 9434 ft | 239 kts | 9° |
| 2026-05-09 08:55 | 35.02707 | -90.10940 | 9323 ft | 236 kts | 9° |
| 2026-05-09 08:55 | 35.04353 | -90.10900 | 8844 ft | 240 kts | 8° |
| 2026-05-09 08:55 | 35.06010 | -90.10867 | 8533 ft | 234 kts | 9° |
| 2026-05-09 08:55 | 35.07628 | -90.10836 | 8188 ft | 229 kts | 9° |
| 2026-05-09 08:56 | 35.09229 | -90.10803 | 7713 ft | 231 kts | 9° |
| 2026-05-09 08:56 | 35.10820 | -90.10802 | 7336 ft | 228 kts | 8° |
| 2026-05-09 08:56 | 35.12413 | -90.10828 | 6934 ft | 225 kts | 8° |
| 2026-05-09 08:56 | 35.13985 | -90.10851 | 6538 ft | 223 kts | 9° |
| 2026-05-09 08:57 | 35.15514 | -90.10873 | 6054 ft | 222 kts | 8° |
| 2026-05-09 08:57 | 35.17067 | -90.10895 | 5723 ft | 219 kts | 9° |
| 2026-05-09 08:57 | 35.18584 | -90.10918 | 5454 ft | 216 kts | 9° |
| 2026-05-09 08:57 | 35.20060 | -90.10944 | 5484 ft | 207 kts | 9° |
| 2026-05-09 08:58 | 35.21551 | -90.10957 | 5448 ft | 220 kts | 9° |
| 2026-05-09 08:58 | 35.23105 | -90.10978 | 5311 ft | 224 kts | 8° |
| 2026-05-09 08:58 | 35.24680 | -90.11002 | 5001 ft | 226 kts | 8° |
| 2026-05-09 08:58 | 35.26246 | -90.11028 | 4688 ft | 225 kts | 8° |
| 2026-05-09 08:59 | 35.27815 | -90.11053 | 4376 ft | 224 kts | 8° |
| 2026-05-09 08:59 | 35.29368 | -90.11078 | 4180 ft | 217 kts | 8° |
| 2026-05-09 08:59 | 35.30840 | -90.11088 | 4176 ft | 204 kts | 15° |
| 2026-05-09 08:59 | 35.32092 | -90.10471 | 4206 ft | 192 kts | 49° |
| 2026-05-09 09:00 | 35.32731 | -90.09064 | 4072 ft | 195 kts | 81° |
| 2026-05-09 09:00 | 35.32523 | -90.07462 | 3828 ft | 196 kts | 110° |
| 2026-05-09 09:00 | 35.31827 | -90.06027 | 3562 ft | 196 kts | 116° |
| 2026-05-09 09:00 | 35.31050 | -90.04650 | 3282 ft | 195 kts | 119° |
| 2026-05-09 09:01 | 35.30225 | -90.03339 | 3004 ft | 195 kts | 121° |
| 2026-05-09 09:01 | 35.29369 | -90.02068 | 2730 ft | 194 kts | 123° |
| 2026-05-09 09:01 | 35.28491 | -90.00822 | 2453 ft | 194 kts | 123° |
| 2026-05-09 09:01 | 35.27586 | -89.99575 | 2202 ft | 191 kts | 124° |
| 2026-05-09 09:02 | 35.26708 | -89.98405 | 2172 ft | 179 kts | 127° |
| 2026-05-09 09:02 | 35.25586 | -89.97768 | 2213 ft | 184 kts | 166° |
| 2026-05-09 09:02 | 35.24293 | -89.97745 | 2319 ft | 186 kts | 168° |
| 2026-05-09 09:02 | 35.23019 | -89.97707 | 2340 ft | 179 kts | 168° |
| 2026-05-09 09:03 | 35.21757 | -89.97665 | 2350 ft | 183 kts | 167° |
| 2026-05-09 09:03 | 35.20473 | -89.97630 | 2355 ft | 183 kts | 168° |
| 2026-05-09 09:03 | 35.19191 | -89.97600 | 2354 ft | 184 kts | 168° |
| 2026-05-09 09:03 | 35.17911 | -89.97569 | 2353 ft | 183 kts | 168° |
| 2026-05-09 09:04 | 35.16631 | -89.97543 | 2350 ft | 180 kts | 168° |
| 2026-05-09 09:04 | 35.15409 | -89.97521 | 2311 ft | 174 kts | 168° |
| 2026-05-09 09:04 | 35.14191 | -89.97492 | 2075 ft | 171 kts | 168° |
| 2026-05-09 09:04 | 35.13024 | -89.97472 | 1872 ft | 162 kts | 168° |
| 2026-05-09 09:05 | 35.11929 | -89.97450 | 1636 ft | 150 kts | 167° |
| 2026-05-09 09:05 | 35.10912 | -89.97429 | 1426 ft | 140 kts | 168° |
| 2026-05-09 09:05 | 35.09929 | -89.97401 | 1268 ft | 142 kts | 169° |
| 2026-05-09 09:05 | 35.08913 | -89.97375 | 1083 ft | 145 kts | 171° |
| 2026-05-09 09:06 | 35.07908 | -89.97356 | 892 ft | 142 kts | 173° |
| 2026-05-09 09:06 | 35.06924 | -89.97337 | 707 ft | 141 kts | 174° |
| 2026-05-09 09:06 | 35.05941 | -89.97327 | 507 ft | 142 kts | 175° |
| 2026-05-09 09:06 | 35.04947 | -89.97287 | 325 ft | 138 kts | 175° |
| 2026-05-09 09:07 | 35.04014 | -89.97263 | 300 ft | 116 kts | 178° |
| 2026-05-09 09:07 | 35.03490 | -89.97260 | 312 ft | 19 kts | 178° |
| 2026-05-09 09:07 | 35.03368 | -89.97271 | 313 ft | 17 kts | 193° |
| 2026-05-09 09:07 | 35.03267 | -89.97321 | 316 ft | 11 kts | 209° |
| 2026-05-09 09:08 | 35.03248 | -89.97334 | 317 ft | 0 kts | 212° |
| 2026-05-09 09:09 | 35.03238 | -89.97343 | 318 ft | 3 kts | 216° |
| 2026-05-09 09:09 | 35.03222 | -89.97365 | 319 ft | 3 kts | 240° |
| 2026-05-09 09:10 | 35.03216 | -89.97396 | 320 ft | 3 kts | 272° |
| 2026-05-09 09:10 | 35.03227 | -89.97422 | 321 ft | 3 kts | 319° |
| 2026-05-09 09:10 | 35.03263 | -89.97437 | 321 ft | 7 kts | 352° |
| 2026-05-09 09:10 | 35.03330 | -89.97440 | 320 ft | 11 kts | 359° |
| 2026-05-09 09:11 | 35.03426 | -89.97441 | 318 ft | 13 kts | 360° |
| 2026-05-09 09:11 | 35.03518 | -89.97443 | 318 ft | 14 kts | 359° |
| 2026-05-09 09:11 | 35.03627 | -89.97445 | 315 ft | 15 kts | 358° |
| 2026-05-09 09:11 | 35.03726 | -89.97448 | 314 ft | 10 kts | 359° |
| 2026-05-09 09:12 | 35.03798 | -89.97411 | 312 ft | 9 kts | 64° |
| 2026-05-09 09:12 | 35.03813 | -89.97334 | 310 ft | 10 kts | 67° |
| 2026-05-09 09:12 | 35.03845 | -89.97253 | 306 ft | 11 kts | 96° |
| 2026-05-09 09:12 | 35.03834 | -89.97214 | 304 ft | 0 kts | 115° |
| 2026-05-09 09:13 | 35.03821 | -89.97162 | 303 ft | 14 kts | 100° |
| 2026-05-09 09:13 | 35.03811 | -89.97039 | 296 ft | 12 kts | 97° |
| 2026-05-09 09:13 | 35.03795 | -89.96925 | 291 ft | 16 kts | 112° |
| 2026-05-09 09:14 | 35.03708 | -89.96854 | 290 ft | 13 kts | 174° |
| 2026-05-09 09:14 | 35.03611 | -89.96851 | 290 ft | 14 kts | 181° |
| 2026-05-09 09:14 | 35.03514 | -89.96854 | 291 ft | 13 kts | 183° |
| 2026-05-09 09:14 | 35.03435 | -89.96852 | 292 ft | 8 kts | 160° |
| 2026-05-09 09:15 | 35.03402 | -89.96793 | 291 ft | 9 kts | 98° |
| 2026-05-09 09:15 | 35.03406 | -89.96706 | 289 ft | 7 kts | 88° |
| 2026-05-09 09:15 | 35.03398 | -89.96639 | 289 ft | 7 kts | 108° |
| 2026-05-09 09:15 | 35.03394 | -89.96600 | 290 ft | 0 kts | 92° |